Terminal Aerodrome Forecast
Issued by NWS

Home | Current Version | Previous Version | Graphics & Text | Print | Product List | Glossary On
Versions: 1 2 3 4 5 6 7 8 9 10 11 12 13 14 15 16 17 18 19 20 21 22 23
168
FTUS43 KBIS 250111 AAA
TAFMOT
TAF AMD
KMOT 250111Z 2501/2524 31008KT P6SM BKN035 OVC045
      TEMPO 2501/2505 BKN025
     FM250500 31005KT P6SM SCT015 OVC025
     FM251000 VRB03KT P6SM OVC015
     FM251400 35004KT P6SM OVC011
     FM252100 07005KT P6SM SCT015 BKN025=

USA.gov is the U.S. government's official web portal to all federal, state and local government web resources and services.